Terminal Aerodrome Forecast
Issued by NWS

Home | Current Version | Previous Version | Text Only | Print | Product List | Glossary On
Versions: 1 2 3 4 5 6 7 8 9 10 11 12 13 14 15 16 17 18 19
000
FTUS42 KTAE 221100
TAFDHN
TAF
KDHN 221133Z 2212/2312 26003KT P6SM FEW250
     FM221400 31006KT P6SM SCT040 SCT250
     FM221700 34007KT P6SM VCTS SCT050CB SCT120 PROB30 2221/2224 5SM
      TSRA BKN040CB BKN100
     FM230100 35005KT P6SM FEW250=

USA.gov is the U.S. government's official web portal to all federal, state and local government web resources and services.